sensor_id;sensor_type;location;lat;lon;timestamp;temperature;humidity
56761;DHT22;42633;44.494;11.356;2022-12-18T00:00:59;9.60;99.90
56761;DHT22;42633;44.494;11.356;2022-12-18T00:04:05;9.60;99.90
56761;DHT22;42633;44.494;11.356;2022-12-18T00:07:09;9.50;99.90
56761;DHT22;42633;44.494;11.356;2022-12-18T00:10:13;9.50;99.90
56761;DHT22;42633;44.494;11.356;2022-12-18T00:13:17;9.50;99.90
56761;DHT22;42633;44.494;11.356;2022-12-18T00:16:23;9.40;99.90
56761;DHT22;42633;44.494;11.356;2022-12-18T00:19:27;9.40;99.90
56761;DHT22;42633;44.494;11.356;2022-12-18T00:22:31;9.40;99.90
56761;DHT22;42633;44.494;11.356;2022-12-18T00:25:36;9.30;99.90
56761;DHT22;42633;44.494;11.356;2022-12-18T00:28:40;9.20;99.90
56761;DHT22;42633;44.494;11.356;2022-12-18T00:31:45;9.20;99.90
56761;DHT22;42633;44.494;11.356;2022-12-18T00:34:49;9.20;99.90
56761;DHT22;42633;44.494;11.356;2022-12-18T00:37:53;9.20;99.90
56761;DHT22;42633;44.494;11.356;2022-12-18T00:40:57;9.20;99.90
56761;DHT22;42633;44.494;11.356;2022-12-18T00:44:02;9.20;99.90
56761;DHT22;42633;44.494;11.356;2022-12-18T00:47:07;9.10;99.90
56761;DHT22;42633;44.494;11.356;2022-12-18T00:50:11;9.10;99.90
56761;DHT22;42633;44.494;11.356;2022-12-18T00:53:16;9.00;99.90
56761;DHT22;42633;44.494;11.356;2022-12-18T00:56:19;9.00;99.90
56761;DHT22;42633;44.494;11.356;2022-12-18T00:59:24;9.00;99.90
56761;DHT22;42633;44.494;11.356;2022-12-18T01:02:28;9.00;99.90
56761;DHT22;42633;44.494;11.356;2022-12-18T01:05:32;8.90;99.90
56761;DHT22;42633;44.494;11.356;2022-12-18T01:08:37;8.80;99.90
56761;DHT22;42633;44.494;11.356;2022-12-18T01:11:42;8.60;99.90
56761;DHT22;42633;44.494;11.356;2022-12-18T01:14:48;8.60;99.90
56761;DHT22;42633;44.494;11.356;2022-12-18T01:17:53;8.70;99.90
56761;DHT22;42633;44.494;11.356;2022-12-18T01:20:57;8.80;99.90
56761;DHT22;42633;44.494;11.356;2022-12-18T01:24:01;8.80;99.90
56761;DHT22;42633;44.494;11.356;2022-12-18T01:27:05;8.90;99.90
56761;DHT22;42633;44.494;11.356;2022-12-18T01:30:10;8.90;99.90
56761;DHT22;42633;44.494;11.356;2022-12-18T01:33:14;8.90;99.90
56761;DHT22;42633;44.494;11.356;2022-12-18T01:36:23;8.70;99.90
56761;DHT22;42633;44.494;11.356;2022-12-18T01:39:27;8.60;99.90
56761;DHT22;42633;44.494;11.356;2022-12-18T01:42:32;8.60;99.90
56761;DHT22;42633;44.494;11.356;2022-12-18T01:45:36;8.60;99.90
56761;DHT22;42633;44.494;11.356;2022-12-18T01:48:43;8.40;99.90
56761;DHT22;42633;44.494;11.356;2022-12-18T01:51:49;8.40;99.90
56761;DHT22;42633;44.494;11.356;2022-12-18T01:54:53;8.40;99.90
56761;DHT22;42633;44.494;11.356;2022-12-18T01:57:59;8.30;99.90
56761;DHT22;42633;44.494;11.356;2022-12-18T02:01:04;8.30;99.90
56761;DHT22;42633;44.494;11.356;2022-12-18T02:04:23;8.20;99.90
56761;DHT22;42633;44.494;11.356;2022-12-18T02:14:34;8.00;99.90
56761;DHT22;42633;44.494;11.356;2022-12-18T02:17:51;7.90;99.90
56761;DHT22;42633;44.494;11.356;2022-12-18T02:21:06;7.90;99.90
56761;DHT22;42633;44.494;11.356;2022-12-18T02:27:49;7.80;99.90
56761;DHT22;42633;44.494;11.356;2022-12-18T02:31:04;7.80;99.90
56761;DHT22;42633;44.494;11.356;2022-12-18T02:34:10;7.80;99.90
56761;DHT22;42633;44.494;11.356;2022-12-18T02:37:18;7.80;99.90
56761;DHT22;42633;44.494;11.356;2022-12-18T02:40:26;7.80;99.90
56761;DHT22;42633;44.494;11.356;2022-12-18T02:43:31;7.80;99.90
56761;DHT22;42633;44.494;11.356;2022-12-18T02:47:05;7.80;99.90
56761;DHT22;42633;44.494;11.356;2022-12-18T02:53:50;7.90;99.90
56761;DHT22;42633;44.494;11.356;2022-12-18T02:56:58;8.00;99.90
56761;DHT22;42633;44.494;11.356;2022-12-18T03:00:12;8.00;99.90
56761;DHT22;42633;44.494;11.356;2022-12-18T03:03:30;8.10;99.90
56761;DHT22;42633;44.494;11.356;2022-12-18T03:06:40;8.20;99.90
56761;DHT22;42633;44.494;11.356;2022-12-18T03:09:48;8.20;99.90
56761;DHT22;42633;44.494;11.356;2022-12-18T03:13:16;8.20;99.90
56761;DHT22;42633;44.494;11.356;2022-12-18T03:16:27;8.20;99.90
56761;DHT22;42633;44.494;11.356;2022-12-18T03:19:33;8.20;99.90
56761;DHT22;42633;44.494;11.356;2022-12-18T03:22:41;8.20;99.90
56761;DHT22;42633;44.494;11.356;2022-12-18T03:25:47;8.20;99.90
56761;DHT22;42633;44.494;11.356;2022-12-18T03:28:56;8.20;99.90
56761;DHT22;42633;44.494;11.356;2022-12-18T03:32:18;8.20;99.90
56761;DHT22;42633;44.494;11.356;2022-12-18T03:35:42;8.10;99.90
56761;DHT22;42633;44.494;11.356;2022-12-18T03:38:50;8.10;99.90
56761;DHT22;42633;44.494;11.356;2022-12-18T03:45:42;8.00;99.90
56761;DHT22;42633;44.494;11.356;2022-12-18T03:49:05;8.00;99.90
56761;DHT22;42633;44.494;11.356;2022-12-18T03:52:29;8.00;99.90
56761;DHT22;42633;44.494;11.356;2022-12-18T03:55:35;8.00;99.90
56761;DHT22;42633;44.494;11.356;2022-12-18T03:58:44;7.90;99.90
56761;DHT22;42633;44.494;11.356;2022-12-18T04:02:01;7.90;99.90
56761;DHT22;42633;44.494;11.356;2022-12-18T04:05:09;7.90;99.90
56761;DHT22;42633;44.494;11.356;2022-12-18T04:08:17;8.00;99.90
56761;DHT22;42633;44.494;11.356;2022-12-18T04:11:29;8.00;99.90
56761;DHT22;42633;44.494;11.356;2022-12-18T04:14:33;8.00;99.90
56761;DHT22;42633;44.494;11.356;2022-12-18T04:17:49;8.00;99.90
56761;DHT22;42633;44.494;11.356;2022-12-18T04:20:57;8.00;99.90
56761;DHT22;42633;44.494;11.356;2022-12-18T04:24:05;8.10;99.90
56761;DHT22;42633;44.494;11.356;2022-12-18T04:27:11;8.10;99.90
56761;DHT22;42633;44.494;11.356;2022-12-18T04:30:20;8.10;99.90
56761;DHT22;42633;44.494;11.356;2022-12-18T04:33:25;8.10;99.90
56761;DHT22;42633;44.494;11.356;2022-12-18T04:36:29;8.10;99.90
56761;DHT22;42633;44.494;11.356;2022-12-18T04:39:35;8.10;99.90
56761;DHT22;42633;44.494;11.356;2022-12-18T04:42:45;8.00;99.90
56761;DHT22;42633;44.494;11.356;2022-12-18T04:45:49;8.10;99.90
56761;DHT22;42633;44.494;11.356;2022-12-18T04:48:53;8.10;99.90
56761;DHT22;42633;44.494;11.356;2022-12-18T04:52:00;8.10;99.90
56761;DHT22;42633;44.494;11.356;2022-12-18T04:55:05;8.10;99.90
56761;DHT22;42633;44.494;11.356;2022-12-18T04:58:09;8.10;99.90
56761;DHT22;42633;44.494;11.356;2022-12-18T05:01:15;8.10;99.90
56761;DHT22;42633;44.494;11.356;2022-12-18T05:04:19;8.10;99.90
56761;DHT22;42633;44.494;11.356;2022-12-18T05:07:23;8.10;99.90
56761;DHT22;42633;44.494;11.356;2022-12-18T05:10:28;8.10;99.90
56761;DHT22;42633;44.494;11.356;2022-12-18T05:13:32;8.00;99.90
56761;DHT22;42633;44.494;11.356;2022-12-18T05:16:37;8.10;99.90
56761;DHT22;42633;44.494;11.356;2022-12-18T05:19:41;8.10;99.90
56761;DHT22;42633;44.494;11.356;2022-12-18T05:22:45;8.00;99.90
56761;DHT22;42633;44.494;11.356;2022-12-18T05:28:57;8.00;99.90
56761;DHT22;42633;44.494;11.356;2022-12-18T05:32:01;8.00;99.90
56761;DHT22;42633;44.494;11.356;2022-12-18T05:35:06;8.00;99.90
56761;DHT22;42633;44.494;11.356;2022-12-18T05:38:11;8.00;99.90
56761;DHT22;42633;44.494;11.356;2022-12-18T05:41:15;7.90;99.90
56761;DHT22;42633;44.494;11.356;2022-12-18T05:44:19;7.90;99.90
56761;DHT22;42633;44.494;11.356;2022-12-18T05:47:23;7.90;99.90
56761;DHT22;42633;44.494;11.356;2022-12-18T05:50:27;7.90;99.90
56761;DHT22;42633;44.494;11.356;2022-12-18T05:53:42;7.90;99.90
56761;DHT22;42633;44.494;11.356;2022-12-18T05:56:50;7.90;99.90
56761;DHT22;42633;44.494;11.356;2022-12-18T05:59:54;7.90;99.90
56761;DHT22;42633;44.494;11.356;2022-12-18T06:02:58;8.00;99.90
56761;DHT22;42633;44.494;11.356;2022-12-18T06:06:03;7.90;99.90
56761;DHT22;42633;44.494;11.356;2022-12-18T06:09:06;7.90;99.90
56761;DHT22;42633;44.494;11.356;2022-12-18T06:12:13;7.80;99.90
56761;DHT22;42633;44.494;11.356;2022-12-18T06:15:19;7.80;99.90
56761;DHT22;42633;44.494;11.356;2022-12-18T06:18:26;7.70;99.90
56761;DHT22;42633;44.494;11.356;2022-12-18T06:21:34;7.60;99.90
56761;DHT22;42633;44.494;11.356;2022-12-18T06:24:38;7.50;99.90
56761;DHT22;42633;44.494;11.356;2022-12-18T06:27:42;7.50;99.90
56761;DHT22;42633;44.494;11.356;2022-12-18T06:30:48;7.40;99.90
56761;DHT22;42633;44.494;11.356;2022-12-18T06:33:52;7.40;99.90
56761;DHT22;42633;44.494;11.356;2022-12-18T06:36:56;7.30;99.90
56761;DHT22;42633;44.494;11.356;2022-12-18T06:40:00;7.30;99.90
56761;DHT22;42633;44.494;11.356;2022-12-18T06:43:05;7.20;99.90
56761;DHT22;42633;44.494;11.356;2022-12-18T06:46:10;7.20;99.90
56761;DHT22;42633;44.494;11.356;2022-12-18T06:49:15;7.20;99.90
56761;DHT22;42633;44.494;11.356;2022-12-18T06:52:19;7.20;99.90
56761;DHT22;42633;44.494;11.356;2022-12-18T06:55:23;7.10;99.90
56761;DHT22;42633;44.494;11.356;2022-12-18T06:58:28;7.20;99.90
56761;DHT22;42633;44.494;11.356;2022-12-18T07:01:34;7.10;99.90
56761;DHT22;42633;44.494;11.356;2022-12-18T07:04:38;7.10;99.90
56761;DHT22;42633;44.494;11.356;2022-12-18T07:07:42;7.10;99.90
56761;DHT22;42633;44.494;11.356;2022-12-18T07:10:46;7.20;99.90
56761;DHT22;42633;44.494;11.356;2022-12-18T07:13:52;7.10;99.90
56761;DHT22;42633;44.494;11.356;2022-12-18T07:16:57;7.10;99.90
56761;DHT22;42633;44.494;11.356;2022-12-18T07:20:01;7.10;99.90
56761;DHT22;42633;44.494;11.356;2022-12-18T07:23:05;7.20;99.90
56761;DHT22;42633;44.494;11.356;2022-12-18T07:26:12;7.20;99.90
56761;DHT22;42633;44.494;11.356;2022-12-18T07:29:16;7.20;99.90
56761;DHT22;42633;44.494;11.356;2022-12-18T07:32:20;7.30;99.90
56761;DHT22;42633;44.494;11.356;2022-12-18T07:35:24;7.40;99.90
56761;DHT22;42633;44.494;11.356;2022-12-18T07:38:28;7.40;99.90
56761;DHT22;42633;44.494;11.356;2022-12-18T07:41:33;7.50;99.90
56761;DHT22;42633;44.494;11.356;2022-12-18T07:44:45;7.50;99.90
56761;DHT22;42633;44.494;11.356;2022-12-18T07:47:49;7.60;99.90
56761;DHT22;42633;44.494;11.356;2022-12-18T07:50:57;7.70;99.90
56761;DHT22;42633;44.494;11.356;2022-12-18T07:54:01;7.80;99.90
56761;DHT22;42633;44.494;11.356;2022-12-18T07:57:05;7.90;99.90
56761;DHT22;42633;44.494;11.356;2022-12-18T08:00:10;7.90;99.90
56761;DHT22;42633;44.494;11.356;2022-12-18T08:03:18;8.00;99.90
56761;DHT22;42633;44.494;11.356;2022-12-18T08:06:22;8.10;99.90
56761;DHT22;42633;44.494;11.356;2022-12-18T08:09:28;8.10;99.90
56761;DHT22;42633;44.494;11.356;2022-12-18T08:12:32;8.20;99.90
56761;DHT22;42633;44.494;11.356;2022-12-18T08:15:36;8.30;99.90
56761;DHT22;42633;44.494;11.356;2022-12-18T08:18:40;8.30;99.90
56761;DHT22;42633;44.494;11.356;2022-12-18T08:21:44;8.40;99.90
56761;DHT22;42633;44.494;11.356;2022-12-18T08:24:55;8.50;99.90
56761;DHT22;42633;44.494;11.356;2022-12-18T08:27:59;8.60;99.90
56761;DHT22;42633;44.494;11.356;2022-12-18T08:31:03;8.70;99.90
56761;DHT22;42633;44.494;11.356;2022-12-18T08:34:07;8.80;99.90
56761;DHT22;42633;44.494;11.356;2022-12-18T08:37:12;8.90;99.90
56761;DHT22;42633;44.494;11.356;2022-12-18T08:40:16;8.80;99.90
56761;DHT22;42633;44.494;11.356;2022-12-18T08:43:20;8.90;99.90
56761;DHT22;42633;44.494;11.356;2022-12-18T08:46:43;9.10;99.90
56761;DHT22;42633;44.494;11.356;2022-12-18T08:49:48;9.20;99.90
56761;DHT22;42633;44.494;11.356;2022-12-18T08:52:53;9.10;99.90
56761;DHT22;42633;44.494;11.356;2022-12-18T08:55:57;9.10;99.90
56761;DHT22;42633;44.494;11.356;2022-12-18T09:02:50;9.10;99.90
56761;DHT22;42633;44.494;11.356;2022-12-18T09:05:54;9.40;99.90
56761;DHT22;42633;44.494;11.356;2022-12-18T09:08:58;9.50;99.90
56761;DHT22;42633;44.494;11.356;2022-12-18T09:12:02;9.70;99.90
56761;DHT22;42633;44.494;11.356;2022-12-18T09:15:06;9.70;99.90
56761;DHT22;42633;44.494;11.356;2022-12-18T09:18:11;9.70;99.90
56761;DHT22;42633;44.494;11.356;2022-12-18T09:21:18;9.70;99.90
56761;DHT22;42633;44.494;11.356;2022-12-18T09:24:25;9.70;99.90
56761;DHT22;42633;44.494;11.356;2022-12-18T09:27:34;9.70;99.90
56761;DHT22;42633;44.494;11.356;2022-12-18T09:30:39;9.60;99.90
56761;DHT22;42633;44.494;11.356;2022-12-18T09:33:43;9.50;99.90
56761;DHT22;42633;44.494;11.356;2022-12-18T09:36:48;9.30;99.90
56761;DHT22;42633;44.494;11.356;2022-12-18T09:39:59;9.30;99.90
56761;DHT22;42633;44.494;11.356;2022-12-18T09:43:04;9.30;99.90
56761;DHT22;42633;44.494;11.356;2022-12-18T09:46:15;9.30;99.90
56761;DHT22;42633;44.494;11.356;2022-12-18T09:49:33;9.30;99.90
56761;DHT22;42633;44.494;11.356;2022-12-18T09:52:45;9.30;99.90
56761;DHT22;42633;44.494;11.356;2022-12-18T09:55:51;9.20;99.90
56761;DHT22;42633;44.494;11.356;2022-12-18T09:59:00;9.20;99.90
56761;DHT22;42633;44.494;11.356;2022-12-18T10:02:22;9.40;99.90
56761;DHT22;42633;44.494;11.356;2022-12-18T10:12:23;10.30;99.90
56761;DHT22;42633;44.494;11.356;2022-12-18T10:15:36;10.50;99.60
56761;DHT22;42633;44.494;11.356;2022-12-18T10:25:23;10.90;99.40
56761;DHT22;42633;44.494;11.356;2022-12-18T10:28:30;11.10;98.70
56761;DHT22;42633;44.494;11.356;2022-12-18T10:31:35;11.30;98.20
56761;DHT22;42633;44.494;11.356;2022-12-18T10:34:39;11.50;98.30
56761;DHT22;42633;44.494;11.356;2022-12-18T10:38:19;11.50;98.00
56761;DHT22;42633;44.494;11.356;2022-12-18T10:41:26;11.30;97.80
56761;DHT22;42633;44.494;11.356;2022-12-18T10:44:30;11.10;98.30
56761;DHT22;42633;44.494;11.356;2022-12-18T10:47:35;11.30;98.30
56761;DHT22;42633;44.494;11.356;2022-12-18T10:50:39;11.40;97.80
56761;DHT22;42633;44.494;11.356;2022-12-18T10:54:01;11.50;98.10
56761;DHT22;42633;44.494;11.356;2022-12-18T11:00:32;11.60;97.90
56761;DHT22;42633;44.494;11.356;2022-12-18T11:03:43;11.60;98.20
56761;DHT22;42633;44.494;11.356;2022-12-18T11:07:07;11.80;97.90
56761;DHT22;42633;44.494;11.356;2022-12-18T11:10:17;11.80;97.50
56761;DHT22;42633;44.494;11.356;2022-12-18T11:13:27;11.70;97.80
56761;DHT22;42633;44.494;11.356;2022-12-18T11:16:44;11.70;97.70
56761;DHT22;42633;44.494;11.356;2022-12-18T11:19:54;11.70;97.70
56761;DHT22;42633;44.494;11.356;2022-12-18T11:23:04;11.60;97.80
56761;DHT22;42633;44.494;11.356;2022-12-18T11:26:09;11.70;97.80
56761;DHT22;42633;44.494;11.356;2022-12-18T11:29:18;11.80;97.70
56761;DHT22;42633;44.494;11.356;2022-12-18T11:32:40;12.00;97.50
56761;DHT22;42633;44.494;11.356;2022-12-18T11:39:01;11.80;97.30
56761;DHT22;42633;44.494;11.356;2022-12-18T11:46:03;11.90;97.40
56761;DHT22;42633;44.494;11.356;2022-12-18T11:49:12;11.80;97.70
56761;DHT22;42633;44.494;11.356;2022-12-18T11:52:23;11.80;97.60
56761;DHT22;42633;44.494;11.356;2022-12-18T12:06:33;11.70;98.20
56761;DHT22;42633;44.494;11.356;2022-12-18T12:09:42;11.70;98.80
56761;DHT22;42633;44.494;11.356;2022-12-18T12:20:27;11.60;98.40
56761;DHT22;42633;44.494;11.356;2022-12-18T12:28:01;11.50;98.10
56761;DHT22;42633;44.494;11.356;2022-12-18T12:40:17;11.80;98.10
56761;DHT22;42633;44.494;11.356;2022-12-18T12:43:44;11.70;98.40
56761;DHT22;42633;44.494;11.356;2022-12-18T12:46:52;11.80;98.50
56761;DHT22;42633;44.494;11.356;2022-12-18T12:50:01;11.80;98.30
56761;DHT22;42633;44.494;11.356;2022-12-18T12:53:07;11.80;98.40
56761;DHT22;42633;44.494;11.356;2022-12-18T12:56:15;11.80;98.30
56761;DHT22;42633;44.494;11.356;2022-12-18T13:06:42;11.70;98.90
56761;DHT22;42633;44.494;11.356;2022-12-18T13:10:13;11.50;98.50
56761;DHT22;42633;44.494;11.356;2022-12-18T13:13:17;11.40;99.30
56761;DHT22;42633;44.494;11.356;2022-12-18T13:16:24;11.20;99.60
56761;DHT22;42633;44.494;11.356;2022-12-18T13:19:29;11.20;99.50
56761;DHT22;42633;44.494;11.356;2022-12-18T13:22:48;11.20;99.70
56761;DHT22;42633;44.494;11.356;2022-12-18T13:25:56;11.30;99.80
56761;DHT22;42633;44.494;11.356;2022-12-18T13:29:01;11.30;99.60
56761;DHT22;42633;44.494;11.356;2022-12-18T13:32:19;11.30;99.90
56761;DHT22;42633;44.494;11.356;2022-12-18T13:41:35;11.00;99.90
56761;DHT22;42633;44.494;11.356;2022-12-18T13:44:41;10.90;99.90
56761;DHT22;42633;44.494;11.356;2022-12-18T13:47:45;10.90;99.90
56761;DHT22;42633;44.494;11.356;2022-12-18T13:51:09;10.80;99.90
56761;DHT22;42633;44.494;11.356;2022-12-18T13:57:35;10.80;99.90
56761;DHT22;42633;44.494;11.356;2022-12-18T14:00:43;10.80;99.90
56761;DHT22;42633;44.494;11.356;2022-12-18T14:03:47;10.80;99.90
56761;DHT22;42633;44.494;11.356;2022-12-18T14:06:57;10.70;99.90
56761;DHT22;42633;44.494;11.356;2022-12-18T14:10:02;10.70;99.90
56761;DHT22;42633;44.494;11.356;2022-12-18T14:13:10;10.70;99.90
56761;DHT22;42633;44.494;11.356;2022-12-18T14:16:16;10.70;99.90
56761;DHT22;42633;44.494;11.356;2022-12-18T14:19:21;10.70;99.90
56761;DHT22;42633;44.494;11.356;2022-12-18T14:22:26;10.60;99.90
56761;DHT22;42633;44.494;11.356;2022-12-18T14:25:33;10.60;99.90
56761;DHT22;42633;44.494;11.356;2022-12-18T14:28:43;10.50;99.90
56761;DHT22;42633;44.494;11.356;2022-12-18T14:32:09;10.50;99.90
56761;DHT22;42633;44.494;11.356;2022-12-18T14:35:14;10.40;99.90
56761;DHT22;42633;44.494;11.356;2022-12-18T14:38:25;10.40;99.90
56761;DHT22;42633;44.494;11.356;2022-12-18T14:41:30;10.30;99.90
56761;DHT22;42633;44.494;11.356;2022-12-18T14:44:36;10.30;99.90
56761;DHT22;42633;44.494;11.356;2022-12-18T14:47:43;10.20;99.90
56761;DHT22;42633;44.494;11.356;2022-12-18T14:51:15;10.10;99.90
56761;DHT22;42633;44.494;11.356;2022-12-18T14:54:21;10.10;99.90
56761;DHT22;42633;44.494;11.356;2022-12-18T14:57:30;10.00;99.90
56761;DHT22;42633;44.494;11.356;2022-12-18T15:00:41;10.00;99.90
56761;DHT22;42633;44.494;11.356;2022-12-18T15:03:45;10.00;99.90
56761;DHT22;42633;44.494;11.356;2022-12-18T15:10:21;9.90;99.90
56761;DHT22;42633;44.494;11.356;2022-12-18T15:13:26;9.90;99.90
56761;DHT22;42633;44.494;11.356;2022-12-18T15:16:30;9.90;99.90
56761;DHT22;42633;44.494;11.356;2022-12-18T15:19:38;9.90;99.90
56761;DHT22;42633;44.494;11.356;2022-12-18T15:22:42;9.80;99.90
56761;DHT22;42633;44.494;11.356;2022-12-18T15:25:48;9.70;99.90
56761;DHT22;42633;44.494;11.356;2022-12-18T15:28:54;9.70;99.90
56761;DHT22;42633;44.494;11.356;2022-12-18T15:32:18;9.60;99.90
56761;DHT22;42633;44.494;11.356;2022-12-18T15:35:24;9.60;99.90
56761;DHT22;42633;44.494;11.356;2022-12-18T15:38:28;9.60;99.90
56761;DHT22;42633;44.494;11.356;2022-12-18T15:41:35;9.60;99.90
56761;DHT22;42633;44.494;11.356;2022-12-18T15:44:39;9.50;99.90
56761;DHT22;42633;44.494;11.356;2022-12-18T15:47:43;9.50;99.90
56761;DHT22;42633;44.494;11.356;2022-12-18T15:50:49;9.40;99.90
56761;DHT22;42633;44.494;11.356;2022-12-18T15:53:59;9.40;99.90
56761;DHT22;42633;44.494;11.356;2022-12-18T16:00:40;9.30;99.90
56761;DHT22;42633;44.494;11.356;2022-12-18T16:03:45;9.30;99.90
56761;DHT22;42633;44.494;11.356;2022-12-18T16:06:49;9.20;99.90
56761;DHT22;42633;44.494;11.356;2022-12-18T16:09:55;9.20;99.90
56761;DHT22;42633;44.494;11.356;2022-12-18T16:13:00;9.20;99.90
56761;DHT22;42633;44.494;11.356;2022-12-18T16:16:04;9.20;99.90
56761;DHT22;42633;44.494;11.356;2022-12-18T16:19:08;9.20;99.90
56761;DHT22;42633;44.494;11.356;2022-12-18T16:22:22;9.20;99.90
56761;DHT22;42633;44.494;11.356;2022-12-18T16:25:27;9.20;99.90
56761;DHT22;42633;44.494;11.356;2022-12-18T16:28:31;9.10;99.90
56761;DHT22;42633;44.494;11.356;2022-12-18T16:31:36;9.10;99.90
56761;DHT22;42633;44.494;11.356;2022-12-18T16:34:41;9.10;99.90
56761;DHT22;42633;44.494;11.356;2022-12-18T16:37:45;9.10;99.90
56761;DHT22;42633;44.494;11.356;2022-12-18T16:40:50;9.10;99.90
56761;DHT22;42633;44.494;11.356;2022-12-18T16:44:13;9.10;99.90
56761;DHT22;42633;44.494;11.356;2022-12-18T16:47:18;9.10;99.90
56761;DHT22;42633;44.494;11.356;2022-12-18T16:50:25;9.10;99.90
56761;DHT22;42633;44.494;11.356;2022-12-18T16:53:30;9.10;99.90
56761;DHT22;42633;44.494;11.356;2022-12-18T16:56:36;9.10;99.90
56761;DHT22;42633;44.494;11.356;2022-12-18T16:59:40;9.00;99.90
56761;DHT22;42633;44.494;11.356;2022-12-18T17:02:44;9.00;99.90
56761;DHT22;42633;44.494;11.356;2022-12-18T17:05:49;8.90;99.90
56761;DHT22;42633;44.494;11.356;2022-12-18T17:08:57;8.90;99.90
56761;DHT22;42633;44.494;11.356;2022-12-18T17:12:03;8.80;99.90
56761;DHT22;42633;44.494;11.356;2022-12-18T17:15:08;8.80;99.90
56761;DHT22;42633;44.494;11.356;2022-12-18T17:18:12;8.80;99.90
56761;DHT22;42633;44.494;11.356;2022-12-18T17:21:16;8.80;99.90
56761;DHT22;42633;44.494;11.356;2022-12-18T17:24:20;8.70;99.90
56761;DHT22;42633;44.494;11.356;2022-12-18T17:27:24;8.70;99.90
56761;DHT22;42633;44.494;11.356;2022-12-18T17:30:28;8.70;99.90
56761;DHT22;42633;44.494;11.356;2022-12-18T17:33:32;8.70;99.90
56761;DHT22;42633;44.494;11.356;2022-12-18T17:36:38;8.60;99.90
56761;DHT22;42633;44.494;11.356;2022-12-18T17:39:42;8.60;99.90
56761;DHT22;42633;44.494;11.356;2022-12-18T17:42:46;8.60;99.90
56761;DHT22;42633;44.494;11.356;2022-12-18T17:45:50;8.50;99.90
56761;DHT22;42633;44.494;11.356;2022-12-18T17:48:55;8.50;99.90
56761;DHT22;42633;44.494;11.356;2022-12-18T17:51:59;8.50;99.90
56761;DHT22;42633;44.494;11.356;2022-12-18T17:55:02;8.40;99.90
56761;DHT22;42633;44.494;11.356;2022-12-18T17:58:09;8.40;99.90
56761;DHT22;42633;44.494;11.356;2022-12-18T18:01:16;8.40;99.90
56761;DHT22;42633;44.494;11.356;2022-12-18T18:04:20;8.40;99.90
56761;DHT22;42633;44.494;11.356;2022-12-18T18:07:24;8.30;99.90
56761;DHT22;42633;44.494;11.356;2022-12-18T18:10:39;8.30;99.90
56761;DHT22;42633;44.494;11.356;2022-12-18T18:13:45;8.30;99.90
56761;DHT22;42633;44.494;11.356;2022-12-18T18:17:05;8.30;99.90
56761;DHT22;42633;44.494;11.356;2022-12-18T18:20:10;8.20;99.90
56761;DHT22;42633;44.494;11.356;2022-12-18T18:23:14;8.20;99.90
56761;DHT22;42633;44.494;11.356;2022-12-18T18:26:18;8.10;99.90
56761;DHT22;42633;44.494;11.356;2022-12-18T18:29:24;8.10;99.90
56761;DHT22;42633;44.494;11.356;2022-12-18T18:32:28;8.10;99.90
56761;DHT22;42633;44.494;11.356;2022-12-18T18:35:32;8.10;99.90
56761;DHT22;42633;44.494;11.356;2022-12-18T18:38:38;8.00;99.90
56761;DHT22;42633;44.494;11.356;2022-12-18T18:41:42;8.00;99.90
56761;DHT22;42633;44.494;11.356;2022-12-18T18:44:46;8.00;99.90
56761;DHT22;42633;44.494;11.356;2022-12-18T18:47:51;8.00;99.90
56761;DHT22;42633;44.494;11.356;2022-12-18T18:50:56;7.90;99.90
56761;DHT22;42633;44.494;11.356;2022-12-18T18:54:01;7.90;99.90
56761;DHT22;42633;44.494;11.356;2022-12-18T18:57:05;7.90;99.90
56761;DHT22;42633;44.494;11.356;2022-12-18T19:00:09;7.80;99.90
56761;DHT22;42633;44.494;11.356;2022-12-18T19:03:15;7.80;99.90
56761;DHT22;42633;44.494;11.356;2022-12-18T19:06:25;7.80;99.90
56761;DHT22;42633;44.494;11.356;2022-12-18T19:13:21;7.70;99.90
56761;DHT22;42633;44.494;11.356;2022-12-18T19:16:27;7.60;99.90
56761;DHT22;42633;44.494;11.356;2022-12-18T19:19:31;7.60;99.90
56761;DHT22;42633;44.494;11.356;2022-12-18T19:22:35;7.60;99.90
56761;DHT22;42633;44.494;11.356;2022-12-18T19:25:39;7.60;99.90
56761;DHT22;42633;44.494;11.356;2022-12-18T19:28:43;7.60;99.90
56761;DHT22;42633;44.494;11.356;2022-12-18T19:31:48;7.60;99.90
56761;DHT22;42633;44.494;11.356;2022-12-18T19:34:52;7.50;99.90
56761;DHT22;42633;44.494;11.356;2022-12-18T19:37:56;7.50;99.90
56761;DHT22;42633;44.494;11.356;2022-12-18T19:41:03;7.40;99.90
56761;DHT22;42633;44.494;11.356;2022-12-18T19:44:11;7.40;99.90
56761;DHT22;42633;44.494;11.356;2022-12-18T19:47:15;7.40;99.90
56761;DHT22;42633;44.494;11.356;2022-12-18T19:50:19;7.40;99.90
56761;DHT22;42633;44.494;11.356;2022-12-18T19:53:23;7.30;99.90
56761;DHT22;42633;44.494;11.356;2022-12-18T19:56:30;7.20;99.90
56761;DHT22;42633;44.494;11.356;2022-12-18T19:59:34;7.20;99.90
56761;DHT22;42633;44.494;11.356;2022-12-18T20:02:39;7.20;99.90
56761;DHT22;42633;44.494;11.356;2022-12-18T20:05:44;7.20;99.90
56761;DHT22;42633;44.494;11.356;2022-12-18T20:08:49;7.20;99.90
56761;DHT22;42633;44.494;11.356;2022-12-18T20:11:53;7.20;99.90
56761;DHT22;42633;44.494;11.356;2022-12-18T20:14:57;7.10;99.90
56761;DHT22;42633;44.494;11.356;2022-12-18T20:18:01;7.10;99.90
56761;DHT22;42633;44.494;11.356;2022-12-18T20:21:05;7.10;99.90
56761;DHT22;42633;44.494;11.356;2022-12-18T20:24:09;7.10;99.90
56761;DHT22;42633;44.494;11.356;2022-12-18T20:27:13;7.10;99.90
56761;DHT22;42633;44.494;11.356;2022-12-18T20:30:17;7.10;99.90
56761;DHT22;42633;44.494;11.356;2022-12-18T20:33:21;7.10;99.90
56761;DHT22;42633;44.494;11.356;2022-12-18T20:36:25;7.10;99.90
56761;DHT22;42633;44.494;11.356;2022-12-18T20:39:29;7.10;99.90
56761;DHT22;42633;44.494;11.356;2022-12-18T20:42:33;7.00;99.90
56761;DHT22;42633;44.494;11.356;2022-12-18T20:45:37;7.00;99.90
56761;DHT22;42633;44.494;11.356;2022-12-18T20:48:42;6.90;99.90
56761;DHT22;42633;44.494;11.356;2022-12-18T20:51:51;6.90;99.90
56761;DHT22;42633;44.494;11.356;2022-12-18T20:54:56;6.90;99.90
56761;DHT22;42633;44.494;11.356;2022-12-18T20:58:00;6.90;99.90
56761;DHT22;42633;44.494;11.356;2022-12-18T21:01:13;6.80;99.90
56761;DHT22;42633;44.494;11.356;2022-12-18T21:04:18;6.80;99.90
56761;DHT22;42633;44.494;11.356;2022-12-18T21:07:21;6.70;99.90
56761;DHT22;42633;44.494;11.356;2022-12-18T21:10:26;6.70;99.90
56761;DHT22;42633;44.494;11.356;2022-12-18T21:13:33;6.70;99.90
56761;DHT22;42633;44.494;11.356;2022-12-18T21:16:37;6.70;99.90
56761;DHT22;42633;44.494;11.356;2022-12-18T21:19:42;6.70;99.90
56761;DHT22;42633;44.494;11.356;2022-12-18T21:22:50;6.70;99.90
56761;DHT22;42633;44.494;11.356;2022-12-18T21:26:23;6.70;99.90